Main page
METAR-TAF:

METAR-TAF

Airports :

Odessa-Schlemeyer Field

Odessa, Texas, United States

latitude: 31-55-17N, longitude: 102-23-30W, elevation: 2998 ft

Current weather observation

The report was made 49 minutes ago, at 15:53 UTC
Wind 21 mph from the South with gusts up to 29 mph
Temperature 84°F
Humidity 52%
Pressure 29.98 in. Hg
Visibility: 10 miles
Clear sky

METAR: KODO 151553Z AUTO 17018G25KT 10SM CLR 29/18 A2998 RMK AO2 PK WND 19027/1458 SLP099 T02890183 $

Time: 11:42 (16:42 UTC)


TAF: missing

Weather observations and forecasts of more than 4000 airports (METAR and TAF reports).

The available stations are represented by yellow and red dots on the map.

Hover mouse over dot to see the name of the station.

Then click to see weather observations and forecasts.

To change the map : click on the green buttons with a black cross to zoom in, on the green button with a dash to zoom out, or on the green arrows for adjacent maps.


METAR-TAF: